Victory, North Carolina
Current Conditions -  °F | °C
As of 6:54 AM on Monday 20 Oct 2014 (Local Time) from KAKH Reporting Station
Clear Clear  
Wind Chill: 44°   Ceiling: Unl
Heat Index: 44°   Visibility: 10mi
Dew Point: 41°   Wind: 3mph
Humidity: 89%   Direction: 230°SW
Pressure: 30.13"   Gusts: NA
Location:  35.2205°N, 81.2501°W
Report Text: KAKH 201054Z AUTO 23003KT 10SM CLR 07/05 A3013 RMK AO2 SLP202 T00670050
Loading
Personal Weather Stations






























Interactive Weather Map
Tropical Storm Tracking
New forecast layout! Learn more

10-Day Weather Forecast

Advertisements
Track Severe Weather on mobile